Ana Sayfa
METAR-TAF:

METAR-TAF

Havaalanları :

Hartum, Sudan

Enlem: 15-36N, Boylam: 032-33E, yükseklik: 382 m

Güncel hava durumu gözlemi

Rapor saat 09:00 UTC de 39 dakika önce yapıldı.
Rüzgar kuzeydan 7 kt
Sıcaklık 36°C
Nem 14%
Basınç 1011 hPa
Görüş mesafesi 10 km veya daha fazla
1500 m altında bulut yok ve kümülonimbus yok

METAR: HSSS 170900Z 36007KT CAVOK 36/04 Q1011 NOSIG

Saat: 12:39 (09:39 UTC)

Tahmin

Rapor saat 05:00 UTC de 4 saat ve 39 dakika önce yapıldı.
Ayın 17'si saat 06 UTC'den ayın 18'si saat 12 UTC'ye kadar geçerli Tahmin
Rüzgar kuzeydan 10 kt ve 20 kt'a kadar ani rüzgarlar
Görüş mesafesi 10 km veya daha fazla
1500 m altında bulut yok ve kümülonimbus yok

TAF: HSSS 170500Z 1706/1812 36010G20KT CAVOK

4.000'den fazla havaalanı için hava durumu gözlemleri ve tahminleri (METAR ve TAF raporları).

Kullanılabilir istasyonlar harita üzerinde sarı ve kırmızı noktalarla gösterilir.

İstasyonun adını görmek için fareyi noktanın üzerinde gezdirin.

Sonrasında hava gözlem ve tahminlerini görmek için tıklayın.

Haritayı değiştirmek için: yaklaştırmak için siyah artı işaretli yeşil düğmeye ve uzaklaştırmak için de eksi işaretli düğmeye hızla tıklayın; bitişik haritalar için yeşil okları kullanın.


METAR-TAF: